createdAt,value
2023-04-20T05:26:38.501Z,96320.75
2023-04-20T05:27:39.919Z,96307.91
2023-04-20T06:59:44.377Z,96282.09
2023-04-20T07:01:44.342Z,96297.13
2023-04-20T07:02:50.346Z,96289.38
2023-04-20T07:03:52.692Z,96291.41
2023-04-20T07:05:00.927Z,96296.34
2023-04-20T07:06:02.521Z,96296.00
2023-04-20T07:07:03.944Z,96295.88
2023-04-20T07:08:05.471Z,96292.38
2023-04-20T07:09:08.432Z,96299.28
2023-04-20T07:10:12.100Z,96295.88
2023-04-20T07:11:13.566Z,96293.22
2023-04-20T07:12:15.818Z,96290.34
2023-04-20T07:13:17.418Z,96287.16
2023-04-20T07:14:18.794Z,96290.94
2023-04-20T07:15:20.295Z,96284.13
2023-04-20T07:16:21.694Z,96286.38
2023-04-20T07:17:23.091Z,96286.28
2023-04-20T07:18:24.751Z,96286.91
2023-04-20T07:19:26.184Z,96281.41
2023-04-20T07:20:27.557Z,96287.00
2023-04-20T07:21:30.561Z,96283.81
2023-04-20T07:22:32.458Z,96279.81
2023-04-20T07:23:33.873Z,96276.47
2023-04-20T07:24:35.225Z,96276.72
2023-04-20T07:25:36.660Z,96276.41
2023-04-20T07:26:38.105Z,96269.50
2023-04-20T07:27:41.045Z,96270.88
2023-04-20T07:28:42.532Z,96256.78
2023-04-20T07:29:43.975Z,96272.97
2023-04-20T07:30:45.375Z,96273.66
2023-04-20T07:31:46.794Z,96266.44
2023-04-20T07:32:48.767Z,96269.78
2023-04-20T07:33:50.429Z,96269.09
2023-04-20T07:34:51.769Z,96268.88
2023-04-20T07:35:53.139Z,96273.34
2023-04-20T07:36:54.512Z,96278.75
2023-04-20T07:37:55.943Z,96280.38
2023-04-20T07:38:57.384Z,96279.88
2023-04-20T07:39:58.785Z,96285.44
2023-04-20T07:41:00.277Z,96269.59
2023-04-20T07:42:03.767Z,96282.88
2023-04-20T07:43:05.124Z,96280.13
2023-04-20T07:44:06.484Z,96282.00
2023-04-20T07:45:10.214Z,96281.53
2023-04-20T07:46:20.259Z,96278.19
2023-04-20T07:47:21.944Z,96283.59
2023-04-20T07:48:23.299Z,96273.31
2023-04-20T07:49:25.884Z,96287.22
2023-04-20T07:50:27.403Z,96278.88
2023-04-20T07:51:30.268Z,96281.59
2023-04-20T07:52:31.940Z,96267.47
2023-04-20T07:53:35.585Z,96277.81
2023-04-20T07:54:36.936Z,96271.97
2023-04-20T07:55:38.429Z,96275.94
2023-04-20T07:56:39.802Z,96272.16
2023-04-20T07:57:42.443Z,96272.81
2023-04-20T07:58:43.797Z,96267.06
2023-04-20T07:59:46.119Z,96260.72
2023-04-20T08:00:48.009Z,96265.03
2023-04-20T08:01:50.417Z,96270.38
2023-04-20T08:02:52.108Z,96268.38
2023-04-20T08:03:55.794Z,96258.88
2023-04-20T08:04:57.588Z,96267.78
2023-04-20T08:05:59.592Z,96270.41
2023-04-20T08:07:01.417Z,96273.34
2023-04-20T08:08:02.848Z,96273.41
2023-04-20T08:09:04.211Z,96268.38
2023-04-20T08:10:07.444Z,96269.47
2023-04-20T08:11:08.864Z,96273.09
2023-04-20T08:12:10.234Z,96265.88
2023-04-20T08:13:11.644Z,96266.94
2023-04-20T08:14:13.875Z,96265.44
2023-04-20T08:15:15.585Z,96264.00
2023-04-20T08:16:17.301Z,96266.88
2023-04-20T08:17:18.698Z,96265.38
2023-04-20T08:18:21.284Z,96262.06
2023-04-20T08:19:23.133Z,96259.78
2023-04-20T08:20:24.871Z,96266.72
2023-04-20T08:21:26.652Z,96253.81
2023-04-20T08:22:30.162Z,96264.59
2023-04-20T08:23:31.905Z,96266.75
2023-04-20T08:24:33.311Z,96270.41
2023-04-20T08:25:34.793Z,96263.63
2023-04-20T08:26:37.298Z,96259.59
2023-04-20T08:27:38.679Z,96255.88
2023-04-20T08:28:40.066Z,96248.88
2023-04-20T08:29:41.748Z,96251.50
2023-04-20T08:30:43.196Z,96247.97
2023-04-20T08:31:44.705Z,96254.59
2023-04-20T08:32:46.437Z,96252.25
2023-04-20T08:33:48.040Z,96262.44
2023-04-20T08:34:50.145Z,96251.69
2023-04-20T08:35:51.895Z,96256.81
2023-04-20T08:36:53.463Z,96259.84
2023-04-20T08:37:54.843Z,96262.22
2023-04-20T08:39:09.094Z,96257.34
2023-04-20T08:40:11.009Z,96263.03
2023-04-20T08:41:13.574Z,96258.91
2023-04-20T08:42:16.804Z,96261.41
2023-04-20T08:43:18.255Z,96257.16
2023-04-20T08:44:20.461Z,96253.22
2023-04-20T08:45:21.984Z,96261.25
2023-04-20T08:46:24.700Z,96258.53
2023-04-20T08:47:28.004Z,96260.09
2023-04-20T08:48:38.010Z,96261.38
2023-04-20T08:49:39.885Z,96255.22
2023-04-20T08:50:42.022Z,96252.84
2023-04-20T08:51:44.609Z,96260.41
2023-04-20T08:52:46.456Z,96257.03
2023-04-20T08:53:48.137Z,96262.22
2023-04-20T08:54:56.626Z,96262.13
2023-04-20T08:55:59.469Z,96250.56
2023-04-20T08:57:01.769Z,96260.69
2023-04-20T08:58:03.275Z,96257.84
2023-04-20T08:59:12.932Z,96264.63
2023-04-20T09:00:15.182Z,96252.84
2023-04-20T09:01:34.826Z,96262.06
2023-04-20T09:02:48.156Z,96259.38
